sensor_id;sensor_type;location;lat;lon;timestamp;P1;durP1;ratioP1;P2;durP2;ratioP2
55224;SDS011;41091;49.400;8.684;2023-03-16T00:02:04;4.63;;;4.30;;
55224;SDS011;41091;49.400;8.684;2023-03-16T00:04:32;4.97;;;4.53;;
55224;SDS011;41091;49.400;8.684;2023-03-16T00:07:01;5.35;;;4.10;;
55224;SDS011;41091;49.400;8.684;2023-03-16T00:09:38;5.00;;;4.35;;
55224;SDS011;41091;49.400;8.684;2023-03-16T00:12:14;5.18;;;4.15;;
55224;SDS011;41091;49.400;8.684;2023-03-16T00:14:42;5.75;;;4.47;;
55224;SDS011;41091;49.400;8.684;2023-03-16T00:17:09;4.93;;;4.53;;
55224;SDS011;41091;49.400;8.684;2023-03-16T00:19:42;7.60;;;5.25;;
55224;SDS011;41091;49.400;8.684;2023-03-16T00:22:10;5.10;;;4.70;;
55224;SDS011;41091;49.400;8.684;2023-03-16T00:24:41;4.20;;;3.95;;
55224;SDS011;41091;49.400;8.684;2023-03-16T00:27:12;8.95;;;5.28;;
55224;SDS011;41091;49.400;8.684;2023-03-16T00:29:42;7.20;;;4.70;;
55224;SDS011;41091;49.400;8.684;2023-03-16T00:32:22;5.70;;;5.20;;
55224;SDS011;41091;49.400;8.684;2023-03-16T00:34:48;4.50;;;4.10;;
55224;SDS011;41091;49.400;8.684;2023-03-16T00:37:16;7.43;;;4.53;;
55224;SDS011;41091;49.400;8.684;2023-03-16T00:39:42;4.60;;;4.10;;
55224;SDS011;41091;49.400;8.684;2023-03-16T00:42:11;5.55;;;4.95;;
55224;SDS011;41091;49.400;8.684;2023-03-16T00:44:40;4.88;;;4.40;;
55224;SDS011;41091;49.400;8.684;2023-03-16T00:47:05;5.82;;;5.22;;
55224;SDS011;41091;49.400;8.684;2023-03-16T00:49:32;6.50;;;4.75;;
55224;SDS011;41091;49.400;8.684;2023-03-16T00:52:02;6.95;;;4.90;;
55224;SDS011;41091;49.400;8.684;2023-03-16T00:54:31;6.05;;;5.38;;
55224;SDS011;41091;49.400;8.684;2023-03-16T00:56:57;5.28;;;4.78;;
55224;SDS011;41091;49.400;8.684;2023-03-16T00:59:26;6.20;;;5.38;;
55224;SDS011;41091;49.400;8.684;2023-03-16T01:01:52;7.05;;;6.10;;
55224;SDS011;41091;49.400;8.684;2023-03-16T01:04:21;7.13;;;5.28;;
55224;SDS011;41091;49.400;8.684;2023-03-16T01:06:49;9.43;;;5.35;;
55224;SDS011;41091;49.400;8.684;2023-03-16T01:09:15;5.82;;;5.22;;
55224;SDS011;41091;49.400;8.684;2023-03-16T01:11:41;6.28;;;5.63;;
55224;SDS011;41091;49.400;8.684;2023-03-16T01:14:13;5.47;;;4.97;;
55224;SDS011;41091;49.400;8.684;2023-03-16T01:16:41;8.40;;;5.68;;
55224;SDS011;41091;49.400;8.684;2023-03-16T01:19:10;6.97;;;6.38;;
55224;SDS011;41091;49.400;8.684;2023-03-16T01:21:39;5.72;;;5.20;;
55224;SDS011;41091;49.400;8.684;2023-03-16T01:24:06;6.97;;;6.32;;
55224;SDS011;41091;49.400;8.684;2023-03-16T01:26:32;7.57;;;6.85;;
55224;SDS011;41091;49.400;8.684;2023-03-16T01:28:57;11.85;;;6.60;;
55224;SDS011;41091;49.400;8.684;2023-03-16T01:31:23;9.40;;;6.05;;
55224;SDS011;41091;49.400;8.684;2023-03-16T01:33:52;6.63;;;6.03;;
55224;SDS011;41091;49.400;8.684;2023-03-16T01:36:19;6.28;;;5.68;;
55224;SDS011;41091;49.400;8.684;2023-03-16T01:38:45;8.95;;;6.05;;
55224;SDS011;41091;49.400;8.684;2023-03-16T01:41:13;6.13;;;5.53;;
55224;SDS011;41091;49.400;8.684;2023-03-16T01:43:39;11.27;;;6.03;;
55224;SDS011;41091;49.400;8.684;2023-03-16T01:46:08;8.98;;;7.18;;
55224;SDS011;41091;49.400;8.684;2023-03-16T01:48:50;6.65;;;5.95;;
55224;SDS011;41091;49.400;8.684;2023-03-16T01:51:20;7.88;;;5.82;;
55224;SDS011;41091;49.400;8.684;2023-03-16T01:53:49;6.75;;;6.15;;
55224;SDS011;41091;49.400;8.684;2023-03-16T01:56:21;8.15;;;6.85;;
55224;SDS011;41091;49.400;8.684;2023-03-16T01:58:54;6.85;;;6.20;;
55224;SDS011;41091;49.400;8.684;2023-03-16T02:01:22;7.50;;;6.43;;
55224;SDS011;41091;49.400;8.684;2023-03-16T02:03:49;7.10;;;6.03;;
55224;SDS011;41091;49.400;8.684;2023-03-16T02:06:19;6.68;;;5.93;;
55224;SDS011;41091;49.400;8.684;2023-03-16T02:08:47;7.22;;;5.97;;
55224;SDS011;41091;49.400;8.684;2023-03-16T02:11:19;7.10;;;5.68;;
55224;SDS011;41091;49.400;8.684;2023-03-16T02:13:46;9.40;;;6.97;;
55224;SDS011;41091;49.400;8.684;2023-03-16T02:16:12;16.55;;;7.15;;
55224;SDS011;41091;49.400;8.684;2023-03-16T02:18:43;7.25;;;6.50;;
55224;SDS011;41091;49.400;8.684;2023-03-16T02:23:40;8.18;;;7.10;;
55224;SDS011;41091;49.400;8.684;2023-03-16T02:31:12;8.32;;;6.93;;
55224;SDS011;41091;49.400;8.684;2023-03-16T02:33:39;7.82;;;7.03;;
55224;SDS011;41091;49.400;8.684;2023-03-16T02:36:07;8.68;;;6.55;;
55224;SDS011;41091;49.400;8.684;2023-03-16T02:38:35;9.25;;;7.47;;
55224;SDS011;41091;49.400;8.684;2023-03-16T02:41:14;8.10;;;5.97;;
55224;SDS011;41091;49.400;8.684;2023-03-16T02:43:45;9.30;;;6.72;;
55224;SDS011;41091;49.400;8.684;2023-03-16T02:46:13;9.60;;;6.55;;
55224;SDS011;41091;49.400;8.684;2023-03-16T02:51:15;8.48;;;7.32;;
55224;SDS011;41091;49.400;8.684;2023-03-16T02:53:40;8.32;;;7.45;;
55224;SDS011;41091;49.400;8.684;2023-03-16T02:56:06;7.95;;;7.15;;
55224;SDS011;41091;49.400;8.684;2023-03-16T02:58:31;6.30;;;5.70;;
55224;SDS011;41091;49.400;8.684;2023-03-16T03:00:57;7.95;;;7.05;;
55224;SDS011;41091;49.400;8.684;2023-03-16T03:03:22;6.70;;;5.03;;
55224;SDS011;41091;49.400;8.684;2023-03-16T03:05:48;7.22;;;6.47;;
55224;SDS011;41091;49.400;8.684;2023-03-16T03:08:13;7.13;;;6.53;;
55224;SDS011;41091;49.400;8.684;2023-03-16T03:10:39;6.45;;;5.32;;
55224;SDS011;41091;49.400;8.684;2023-03-16T03:13:04;9.15;;;6.53;;
55224;SDS011;41091;49.400;8.684;2023-03-16T03:15:31;8.23;;;5.88;;
55224;SDS011;41091;49.400;8.684;2023-03-16T03:17:57;4.20;;;3.88;;
55224;SDS011;41091;49.400;8.684;2023-03-16T03:20:23;4.32;;;3.92;;
55224;SDS011;41091;49.400;8.684;2023-03-16T03:22:48;4.90;;;4.38;;
55224;SDS011;41091;49.400;8.684;2023-03-16T03:25:17;5.65;;;5.13;;
55224;SDS011;41091;49.400;8.684;2023-03-16T03:27:46;5.17;;;4.67;;
55224;SDS011;41091;49.400;8.684;2023-03-16T03:30:15;5.95;;;5.45;;
55224;SDS011;41091;49.400;8.684;2023-03-16T03:32:42;6.05;;;5.03;;
55224;SDS011;41091;49.400;8.684;2023-03-16T03:35:10;7.15;;;5.57;;
55224;SDS011;41091;49.400;8.684;2023-03-16T03:37:37;6.43;;;4.43;;
55224;SDS011;41091;49.400;8.684;2023-03-16T03:40:04;5.68;;;5.15;;
55224;SDS011;41091;49.400;8.684;2023-03-16T03:42:30;5.93;;;5.32;;
55224;SDS011;41091;49.400;8.684;2023-03-16T03:44:55;5.90;;;5.30;;
55224;SDS011;41091;49.400;8.684;2023-03-16T03:47:28;8.18;;;5.68;;
55224;SDS011;41091;49.400;8.684;2023-03-16T03:49:53;6.07;;;5.47;;
55224;SDS011;41091;49.400;8.684;2023-03-16T03:52:18;6.95;;;5.30;;
55224;SDS011;41091;49.400;8.684;2023-03-16T03:54:43;5.30;;;4.80;;
55224;SDS011;41091;49.400;8.684;2023-03-16T03:57:09;3.83;;;3.63;;
55224;SDS011;41091;49.400;8.684;2023-03-16T03:59:34;2.92;;;2.83;;
55224;SDS011;41091;49.400;8.684;2023-03-16T04:02:08;4.90;;;3.65;;
55224;SDS011;41091;49.400;8.684;2023-03-16T04:04:33;2.70;;;2.60;;
55224;SDS011;41091;49.400;8.684;2023-03-16T04:06:59;3.38;;;2.88;;
55224;SDS011;41091;49.400;8.684;2023-03-16T04:09:24;4.75;;;2.60;;
55224;SDS011;41091;49.400;8.684;2023-03-16T04:11:50;2.72;;;2.63;;
55224;SDS011;41091;49.400;8.684;2023-03-16T04:14:15;10.25;;;4.07;;
55224;SDS011;41091;49.400;8.684;2023-03-16T04:16:43;3.22;;;2.95;;
55224;SDS011;41091;49.400;8.684;2023-03-16T04:19:11;4.50;;;3.35;;
55224;SDS011;41091;49.400;8.684;2023-03-16T04:21:36;3.67;;;3.08;;
55224;SDS011;41091;49.400;8.684;2023-03-16T04:24:02;3.65;;;3.35;;
55224;SDS011;41091;49.400;8.684;2023-03-16T04:26:29;3.28;;;2.97;;
55224;SDS011;41091;49.400;8.684;2023-03-16T04:28:58;6.22;;;3.70;;
55224;SDS011;41091;49.400;8.684;2023-03-16T04:31:23;4.40;;;4.10;;
55224;SDS011;41091;49.400;8.684;2023-03-16T04:33:49;4.57;;;4.18;;
55224;SDS011;41091;49.400;8.684;2023-03-16T04:36:18;4.63;;;4.22;;
55224;SDS011;41091;49.400;8.684;2023-03-16T04:38:48;5.22;;;4.82;;
55224;SDS011;41091;49.400;8.684;2023-03-16T04:41:13;5.75;;;4.28;;
55224;SDS011;41091;49.400;8.684;2023-03-16T04:43:38;4.72;;;4.20;;
55224;SDS011;41091;49.400;8.684;2023-03-16T04:46:04;5.30;;;4.28;;
55224;SDS011;41091;49.400;8.684;2023-03-16T04:48:30;4.35;;;4.05;;
55224;SDS011;41091;49.400;8.684;2023-03-16T04:50:58;4.95;;;3.97;;
55224;SDS011;41091;49.400;8.684;2023-03-16T04:53:23;4.40;;;4.00;;
55224;SDS011;41091;49.400;8.684;2023-03-16T04:55:51;3.55;;;3.30;;
55224;SDS011;41091;49.400;8.684;2023-03-16T04:58:16;4.25;;;3.78;;
55224;SDS011;41091;49.400;8.684;2023-03-16T05:00:42;5.53;;;3.72;;
55224;SDS011;41091;49.400;8.684;2023-03-16T05:03:09;4.22;;;3.83;;
55224;SDS011;41091;49.400;8.684;2023-03-16T05:05:38;3.55;;;3.35;;
55224;SDS011;41091;49.400;8.684;2023-03-16T05:08:04;4.22;;;3.83;;
55224;SDS011;41091;49.400;8.684;2023-03-16T05:13:00;3.75;;;3.45;;
55224;SDS011;41091;49.400;8.684;2023-03-16T05:15:27;4.22;;;3.83;;
55224;SDS011;41091;49.400;8.684;2023-03-16T05:17:56;4.28;;;3.40;;
55224;SDS011;41091;49.400;8.684;2023-03-16T05:20:25;5.03;;;3.80;;
55224;SDS011;41091;49.400;8.684;2023-03-16T05:22:50;3.95;;;3.53;;
55224;SDS011;41091;49.400;8.684;2023-03-16T05:25:21;4.05;;;3.75;;
55224;SDS011;41091;49.400;8.684;2023-03-16T05:27:47;5.03;;;4.55;;
55224;SDS011;41091;49.400;8.684;2023-03-16T05:30:15;5.30;;;3.33;;
55224;SDS011;41091;49.400;8.684;2023-03-16T05:32:40;4.43;;;3.92;;
55224;SDS011;41091;49.400;8.684;2023-03-16T05:35:09;4.20;;;4.00;;
55224;SDS011;41091;49.400;8.684;2023-03-16T05:37:37;5.22;;;4.30;;
55224;SDS011;41091;49.400;8.684;2023-03-16T05:40:06;4.65;;;4.35;;
55224;SDS011;41091;49.400;8.684;2023-03-16T05:42:41;6.03;;;3.92;;
55224;SDS011;41091;49.400;8.684;2023-03-16T05:45:11;4.32;;;3.92;;
55224;SDS011;41091;49.400;8.684;2023-03-16T05:47:37;5.95;;;5.45;;
55224;SDS011;41091;49.400;8.684;2023-03-16T05:50:03;3.88;;;3.65;;
55224;SDS011;41091;49.400;8.684;2023-03-16T05:52:30;4.60;;;4.20;;
55224;SDS011;41091;49.400;8.684;2023-03-16T05:54:57;5.03;;;4.63;;
55224;SDS011;41091;49.400;8.684;2023-03-16T05:57:23;7.22;;;5.13;;
55224;SDS011;41091;49.400;8.684;2023-03-16T05:59:53;4.80;;;4.40;;
55224;SDS011;41091;49.400;8.684;2023-03-16T06:02:18;9.68;;;5.15;;
55224;SDS011;41091;49.400;8.684;2023-03-16T06:04:44;6.97;;;6.05;;
55224;SDS011;41091;49.400;8.684;2023-03-16T06:07:09;7.65;;;4.53;;
55224;SDS011;41091;49.400;8.684;2023-03-16T06:09:34;8.63;;;4.82;;
55224;SDS011;41091;49.400;8.684;2023-03-16T06:12:00;5.78;;;5.28;;
55224;SDS011;41091;49.400;8.684;2023-03-16T06:14:28;4.70;;;4.30;;
55224;SDS011;41091;49.400;8.684;2023-03-16T06:16:54;4.95;;;4.50;;
55224;SDS011;41091;49.400;8.684;2023-03-16T06:19:21;4.65;;;4.22;;
55224;SDS011;41091;49.400;8.684;2023-03-16T06:21:46;6.35;;;4.57;;
55224;SDS011;41091;49.400;8.684;2023-03-16T06:24:14;5.97;;;5.22;;
55224;SDS011;41091;49.400;8.684;2023-03-16T06:26:39;7.68;;;5.30;;
55224;SDS011;41091;49.400;8.684;2023-03-16T06:29:05;6.05;;;5.05;;
55224;SDS011;41091;49.400;8.684;2023-03-16T06:31:30;5.75;;;4.45;;
55224;SDS011;41091;49.400;8.684;2023-03-16T06:34:00;5.95;;;5.35;;
55224;SDS011;41091;49.400;8.684;2023-03-16T06:36:26;6.60;;;5.20;;
55224;SDS011;41091;49.400;8.684;2023-03-16T06:38:54;5.47;;;4.88;;
55224;SDS011;41091;49.400;8.684;2023-03-16T06:41:19;5.95;;;5.43;;
55224;SDS011;41091;49.400;8.684;2023-03-16T06:43:47;38.55;;;16.48;;
55224;SDS011;41091;49.400;8.684;2023-03-16T06:46:12;6.97;;;6.10;;
55224;SDS011;41091;49.400;8.684;2023-03-16T06:48:37;6.70;;;5.20;;
55224;SDS011;41091;49.400;8.684;2023-03-16T06:51:03;6.30;;;5.80;;
55224;SDS011;41091;49.400;8.684;2023-03-16T06:53:31;7.65;;;5.00;;
55224;SDS011;41091;49.400;8.684;2023-03-16T06:55:57;8.20;;;5.95;;
55224;SDS011;41091;49.400;8.684;2023-03-16T06:58:25;7.53;;;5.53;;
55224;SDS011;41091;49.400;8.684;2023-03-16T07:00:50;5.97;;;5.35;;
55224;SDS011;41091;49.400;8.684;2023-03-16T07:03:20;6.63;;;5.72;;
55224;SDS011;41091;49.400;8.684;2023-03-16T07:05:45;7.40;;;5.72;;
55224;SDS011;41091;49.400;8.684;2023-03-16T07:08:13;6.18;;;5.22;;
55224;SDS011;41091;49.400;8.684;2023-03-16T07:10:40;6.32;;;4.95;;
55224;SDS011;41091;49.400;8.684;2023-03-16T07:13:06;9.82;;;5.63;;
55224;SDS011;41091;49.400;8.684;2023-03-16T07:15:31;8.35;;;5.57;;
55224;SDS011;41091;49.400;8.684;2023-03-16T07:17:56;6.07;;;5.47;;
55224;SDS011;41091;49.400;8.684;2023-03-16T07:20:22;8.55;;;5.90;;
55224;SDS011;41091;49.400;8.684;2023-03-16T07:22:48;10.52;;;7.15;;
55224;SDS011;41091;49.400;8.684;2023-03-16T07:25:16;6.03;;;5.03;;
55224;SDS011;41091;49.400;8.684;2023-03-16T07:27:43;4.93;;;4.53;;
55224;SDS011;41091;49.400;8.684;2023-03-16T07:30:14;7.43;;;5.05;;
55224;SDS011;41091;49.400;8.684;2023-03-16T07:32:40;6.53;;;4.93;;
55224;SDS011;41091;49.400;8.684;2023-03-16T07:35:09;5.57;;;3.95;;
55224;SDS011;41091;49.400;8.684;2023-03-16T07:37:35;5.85;;;4.88;;
55224;SDS011;41091;49.400;8.684;2023-03-16T07:40:03;5.88;;;5.30;;
55224;SDS011;41091;49.400;8.684;2023-03-16T07:42:30;7.82;;;4.68;;
55224;SDS011;41091;49.400;8.684;2023-03-16T07:44:56;6.10;;;5.20;;
55224;SDS011;41091;49.400;8.684;2023-03-16T07:47:21;7.05;;;5.13;;
55224;SDS011;41091;49.400;8.684;2023-03-16T07:49:48;9.55;;;5.53;;
55224;SDS011;41091;49.400;8.684;2023-03-16T07:52:13;8.05;;;5.03;;
55224;SDS011;41091;49.400;8.684;2023-03-16T07:54:39;5.90;;;5.15;;
55224;SDS011;41091;49.400;8.684;2023-03-16T07:57:05;8.50;;;5.50;;
55224;SDS011;41091;49.400;8.684;2023-03-16T07:59:31;8.40;;;4.60;;
55224;SDS011;41091;49.400;8.684;2023-03-16T08:01:56;5.25;;;4.85;;
55224;SDS011;41091;49.400;8.684;2023-03-16T08:04:22;6.80;;;4.43;;
55224;SDS011;41091;49.400;8.684;2023-03-16T08:06:49;4.70;;;4.40;;
55224;SDS011;41091;49.400;8.684;2023-03-16T08:09:17;5.27;;;4.63;;
55224;SDS011;41091;49.400;8.684;2023-03-16T08:11:42;4.85;;;4.40;;
55224;SDS011;41091;49.400;8.684;2023-03-16T08:14:08;5.88;;;5.05;;
55224;SDS011;41091;49.400;8.684;2023-03-16T08:16:33;5.95;;;5.40;;
55224;SDS011;41091;49.400;8.684;2023-03-16T08:18:59;3.53;;;3.22;;
55224;SDS011;41091;49.400;8.684;2023-03-16T08:21:25;4.45;;;4.05;;
55224;SDS011;41091;49.400;8.684;2023-03-16T08:23:50;5.47;;;4.03;;
55224;SDS011;41091;49.400;8.684;2023-03-16T08:26:18;6.32;;;5.10;;
55224;SDS011;41091;49.400;8.684;2023-03-16T08:28:45;6.28;;;3.88;;
55224;SDS011;41091;49.400;8.684;2023-03-16T08:31:15;4.35;;;3.85;;
55224;SDS011;41091;49.400;8.684;2023-03-16T08:33:41;4.45;;;3.90;;
55224;SDS011;41091;49.400;8.684;2023-03-16T08:36:08;6.05;;;4.22;;
55224;SDS011;41091;49.400;8.684;2023-03-16T08:38:35;4.82;;;3.70;;
55224;SDS011;41091;49.400;8.684;2023-03-16T08:41:02;4.55;;;4.20;;
55224;SDS011;41091;49.400;8.684;2023-03-16T08:43:29;4.57;;;4.18;;
55224;SDS011;41091;49.400;8.684;2023-03-16T08:45:54;3.58;;;3.38;;
55224;SDS011;41091;49.400;8.684;2023-03-16T08:48:23;4.50;;;4.10;;
55224;SDS011;41091;49.400;8.684;2023-03-16T08:50:48;3.60;;;3.35;;
55224;SDS011;41091;49.400;8.684;2023-03-16T08:53:13;4.93;;;3.33;;
55224;SDS011;41091;49.400;8.684;2023-03-16T08:55:39;4.75;;;3.75;;
55224;SDS011;41091;49.400;8.684;2023-03-16T08:58:08;4.95;;;4.15;;
55224;SDS011;41091;49.400;8.684;2023-03-16T09:00:34;4.18;;;3.72;;
55224;SDS011;41091;49.400;8.684;2023-03-16T09:03:00;4.05;;;3.20;;
55224;SDS011;41091;49.400;8.684;2023-03-16T09:05:29;2.60;;;2.45;;
55224;SDS011;41091;49.400;8.684;2023-03-16T09:07:54;2.70;;;2.50;;
55224;SDS011;41091;49.400;8.684;2023-03-16T09:10:20;3.33;;;2.60;;
55224;SDS011;41091;49.400;8.684;2023-03-16T09:12:50;3.63;;;2.90;;
55224;SDS011;41091;49.400;8.684;2023-03-16T09:15:17;7.88;;;5.13;;
55224;SDS011;41091;49.400;8.684;2023-03-16T09:17:44;3.65;;;3.15;;
55224;SDS011;41091;49.400;8.684;2023-03-16T09:20:10;3.15;;;2.85;;
55224;SDS011;41091;49.400;8.684;2023-03-16T09:22:40;3.28;;;3.08;;
55224;SDS011;41091;49.400;8.684;2023-03-16T09:25:06;3.60;;;3.30;;
55224;SDS011;41091;49.400;8.684;2023-03-16T09:27:33;3.50;;;3.17;;
55224;SDS011;41091;49.400;8.684;2023-03-16T09:30:00;3.97;;;3.67;;
55224;SDS011;41091;49.400;8.684;2023-03-16T09:32:27;3.70;;;3.50;;
55224;SDS011;41091;49.400;8.684;2023-03-16T09:34:54;4.80;;;3.50;;
55224;SDS011;41091;49.400;8.684;2023-03-16T09:37:19;4.07;;;3.45;;
55224;SDS011;41091;49.400;8.684;2023-03-16T09:39:45;4.07;;;3.78;;
55224;SDS011;41091;49.400;8.684;2023-03-16T09:42:13;3.80;;;3.50;;
55224;SDS011;41091;49.400;8.684;2023-03-16T09:45:02;3.55;;;2.78;;
55224;SDS011;41091;49.400;8.684;2023-03-16T09:47:48;2.75;;;2.60;;
55224;SDS011;41091;49.400;8.684;2023-03-16T09:50:24;2.53;;;2.42;;
55224;SDS011;41091;49.400;8.684;2023-03-16T09:53:00;2.78;;;2.58;;
55224;SDS011;41091;49.400;8.684;2023-03-16T09:55:29;2.67;;;2.47;;
55224;SDS011;41091;49.400;8.684;2023-03-16T10:00:24;2.85;;;2.65;;
55224;SDS011;41091;49.400;8.684;2023-03-16T10:05:20;4.25;;;3.17;;
55224;SDS011;41091;49.400;8.684;2023-03-16T10:13:30;3.00;;;2.80;;
55224;SDS011;41091;49.400;8.684;2023-03-16T10:16:00;2.45;;;2.30;;
55224;SDS011;41091;49.400;8.684;2023-03-16T10:18:40;11.15;;;3.00;;
55224;SDS011;41091;49.400;8.684;2023-03-16T10:21:10;2.90;;;2.70;;
55224;SDS011;41091;49.400;8.684;2023-03-16T10:23:37;2.65;;;2.55;;
55224;SDS011;41091;49.400;8.684;2023-03-16T10:26:04;2.88;;;2.67;;
55224;SDS011;41091;49.400;8.684;2023-03-16T10:28:36;3.05;;;2.80;;
55224;SDS011;41091;49.400;8.684;2023-03-16T10:31:02;6.80;;;2.97;;
55224;SDS011;41091;49.400;8.684;2023-03-16T10:33:29;3.47;;;3.17;;
55224;SDS011;41091;49.400;8.684;2023-03-16T10:43:44;2.28;;;2.10;;
55224;SDS011;41091;49.400;8.684;2023-03-16T10:46:11;1.90;;;1.80;;
55224;SDS011;41091;49.400;8.684;2023-03-16T10:48:37;9.48;;;2.05;;
55224;SDS011;41091;49.400;8.684;2023-03-16T10:51:12;1.80;;;1.70;;
55224;SDS011;41091;49.400;8.684;2023-03-16T10:53:42;2.40;;;2.30;;
55224;SDS011;41091;49.400;8.684;2023-03-16T10:56:10;3.05;;;2.78;;
55224;SDS011;41091;49.400;8.684;2023-03-16T10:58:39;3.37;;;3.00;;
55224;SDS011;41091;49.400;8.684;2023-03-16T11:01:16;5.68;;;2.70;;
55224;SDS011;41091;49.400;8.684;2023-03-16T11:03:55;1.98;;;1.85;;
55224;SDS011;41091;49.400;8.684;2023-03-16T11:06:31;2.20;;;2.10;;
55224;SDS011;41091;49.400;8.684;2023-03-16T11:09:03;2.92;;;2.60;;
55224;SDS011;41091;49.400;8.684;2023-03-16T11:11:33;3.83;;;2.92;;
55224;SDS011;41091;49.400;8.684;2023-03-16T11:14:02;2.90;;;2.70;;
55224;SDS011;41091;49.400;8.684;2023-03-16T11:16:48;3.67;;;2.22;;
55224;SDS011;41091;49.400;8.684;2023-03-16T11:22:07;3.00;;;2.83;;
55224;SDS011;41091;49.400;8.684;2023-03-16T11:27:41;4.03;;;2.72;;
55224;SDS011;41091;49.400;8.684;2023-03-16T11:30:13;4.63;;;3.28;;
55224;SDS011;41091;49.400;8.684;2023-03-16T11:32:43;4.75;;;2.97;;
55224;SDS011;41091;49.400;8.684;2023-03-16T11:35:19;3.60;;;3.30;;
55224;SDS011;41091;49.400;8.684;2023-03-16T11:43:17;4.85;;;3.13;;
55224;SDS011;41091;49.400;8.684;2023-03-16T11:56:44;3.40;;;2.70;;
55224;SDS011;41091;49.400;8.684;2023-03-16T12:09:46;3.70;;;3.40;;
55224;SDS011;41091;49.400;8.684;2023-03-16T12:14:46;3.20;;;3.00;;
55224;SDS011;41091;49.400;8.684;2023-03-16T12:22:18;3.17;;;2.88;;
55224;SDS011;41091;49.400;8.684;2023-03-16T12:24:48;2.50;;;2.25;;
55224;SDS011;41091;49.400;8.684;2023-03-16T12:27:33;3.35;;;3.05;;
55224;SDS011;41091;49.400;8.684;2023-03-16T12:39:06;3.40;;;2.97;;
55224;SDS011;41091;49.400;8.684;2023-03-16T12:44:19;4.18;;;2.35;;
55224;SDS011;41091;49.400;8.684;2023-03-16T12:50:08;3.40;;;2.72;;
55224;SDS011;41091;49.400;8.684;2023-03-16T12:52:49;2.13;;;2.03;;
55224;SDS011;41091;49.400;8.684;2023-03-16T12:57:57;5.28;;;3.42;;
55224;SDS011;41091;49.400;8.684;2023-03-16T13:00:31;6.97;;;3.08;;
55224;SDS011;41091;49.400;8.684;2023-03-16T13:03:01;3.72;;;3.03;;
55224;SDS011;41091;49.400;8.684;2023-03-16T13:05:29;3.17;;;2.88;;
55224;SDS011;41091;49.400;8.684;2023-03-16T13:11:03;3.28;;;2.83;;
55224;SDS011;41091;49.400;8.684;2023-03-16T13:13:49;3.45;;;3.03;;
55224;SDS011;41091;49.400;8.684;2023-03-16T13:18:49;3.05;;;2.83;;
55224;SDS011;41091;49.400;8.684;2023-03-16T13:31:52;2.47;;;2.28;;
55224;SDS011;41091;49.400;8.684;2023-03-16T13:34:29;2.63;;;2.47;;
55224;SDS011;41091;49.400;8.684;2023-03-16T13:36:56;3.30;;;2.53;;
55224;SDS011;41091;49.400;8.684;2023-03-16T13:39:26;5.13;;;2.30;;
55224;SDS011;41091;49.400;8.684;2023-03-16T13:42:11;2.30;;;2.20;;
55224;SDS011;41091;49.400;8.684;2023-03-16T13:44:43;2.60;;;2.20;;
55224;SDS011;41091;49.400;8.684;2023-03-16T13:47:12;2.42;;;2.33;;
55224;SDS011;41091;49.400;8.684;2023-03-16T13:49:45;2.72;;;2.53;;
55224;SDS011;41091;49.400;8.684;2023-03-16T13:52:20;2.38;;;2.17;;
55224;SDS011;41091;49.400;8.684;2023-03-16T13:54:53;3.17;;;2.33;;
55224;SDS011;41091;49.400;8.684;2023-03-16T13:57:22;2.13;;;2.00;;
55224;SDS011;41091;49.400;8.684;2023-03-16T13:59:51;3.08;;;2.75;;
55224;SDS011;41091;49.400;8.684;2023-03-16T14:02:27;2.28;;;2.15;;
55224;SDS011;41091;49.400;8.684;2023-03-16T14:04:53;4.07;;;1.80;;
55224;SDS011;41091;49.400;8.684;2023-03-16T14:07:19;3.05;;;2.85;;
55224;SDS011;41091;49.400;8.684;2023-03-16T14:09:50;4.90;;;1.90;;
55224;SDS011;41091;49.400;8.684;2023-03-16T14:12:17;2.00;;;1.90;;
55224;SDS011;41091;49.400;8.684;2023-03-16T14:14:47;3.53;;;2.30;;
55224;SDS011;41091;49.400;8.684;2023-03-16T14:17:18;2.00;;;1.63;;
55224;SDS011;41091;49.400;8.684;2023-03-16T14:22:16;2.63;;;1.93;;
55224;SDS011;41091;49.400;8.684;2023-03-16T14:24:43;4.03;;;2.22;;
55224;SDS011;41091;49.400;8.684;2023-03-16T14:29:59;5.07;;;2.28;;
55224;SDS011;41091;49.400;8.684;2023-03-16T14:32:27;1.98;;;1.85;;
55224;SDS011;41091;49.400;8.684;2023-03-16T14:35:01;1.65;;;1.20;;
55224;SDS011;41091;49.400;8.684;2023-03-16T14:37:34;3.17;;;1.73;;
55224;SDS011;41091;49.400;8.684;2023-03-16T14:40:01;2.22;;;1.92;;
55224;SDS011;41091;49.400;8.684;2023-03-16T14:45:00;2.28;;;1.92;;
55224;SDS011;41091;49.400;8.684;2023-03-16T14:47:30;4.28;;;1.63;;
55224;SDS011;41091;49.400;8.684;2023-03-16T14:50:08;4.47;;;1.70;;
55224;SDS011;41091;49.400;8.684;2023-03-16T14:52:37;1.60;;;1.48;;
55224;SDS011;41091;49.400;8.684;2023-03-16T14:55:09;1.42;;;1.33;;
55224;SDS011;41091;49.400;8.684;2023-03-16T14:57:38;1.02;;;1.00;;
55224;SDS011;41091;49.400;8.684;2023-03-16T15:00:05;2.25;;;1.33;;
55224;SDS011;41091;49.400;8.684;2023-03-16T15:02:36;2.28;;;1.70;;
55224;SDS011;41091;49.400;8.684;2023-03-16T15:05:02;3.53;;;1.23;;
55224;SDS011;41091;49.400;8.684;2023-03-16T15:07:29;1.38;;;0.93;;
55224;SDS011;41091;49.400;8.684;2023-03-16T15:12:43;1.30;;;0.85;;
55224;SDS011;41091;49.400;8.684;2023-03-16T15:15:15;2.05;;;0.60;;
55224;SDS011;41091;49.400;8.684;2023-03-16T15:17:43;3.03;;;1.23;;
55224;SDS011;41091;49.400;8.684;2023-03-16T15:20:13;1.90;;;1.57;;
55224;SDS011;41091;49.400;8.684;2023-03-16T15:22:49;1.27;;;1.05;;
55224;SDS011;41091;49.400;8.684;2023-03-16T15:28:12;3.70;;;1.10;;
55224;SDS011;41091;49.400;8.684;2023-03-16T15:30:42;3.08;;;1.20;;
55224;SDS011;41091;49.400;8.684;2023-03-16T15:33:09;2.53;;;1.15;;
55224;SDS011;41091;49.400;8.684;2023-03-16T15:35:38;1.35;;;1.17;;
55224;SDS011;41091;49.400;8.684;2023-03-16T15:38:10;3.15;;;1.40;;
55224;SDS011;41091;49.400;8.684;2023-03-16T15:40:46;1.92;;;1.08;;
55224;SDS011;41091;49.400;8.684;2023-03-16T15:43:16;3.97;;;0.80;;
55224;SDS011;41091;49.400;8.684;2023-03-16T15:45:42;1.65;;;1.17;;
55224;SDS011;41091;49.400;8.684;2023-03-16T15:48:08;1.48;;;1.00;;
55224;SDS011;41091;49.400;8.684;2023-03-16T15:50:37;5.68;;;1.00;;
55224;SDS011;41091;49.400;8.684;2023-03-16T15:53:06;1.60;;;0.73;;
55224;SDS011;41091;49.400;8.684;2023-03-16T15:55:35;0.85;;;0.60;;
55224;SDS011;41091;49.400;8.684;2023-03-16T15:58:04;2.67;;;0.80;;
55224;SDS011;41091;49.400;8.684;2023-03-16T16:00:34;0.47;;;0.47;;
55224;SDS011;41091;49.400;8.684;2023-03-16T16:03:01;0.60;;;0.60;;
55224;SDS011;41091;49.400;8.684;2023-03-16T16:05:28;5.20;;;1.00;;
55224;SDS011;41091;49.400;8.684;2023-03-16T16:07:58;1.05;;;0.68;;
55224;SDS011;41091;49.400;8.684;2023-03-16T16:10:24;0.60;;;0.60;;
55224;SDS011;41091;49.400;8.684;2023-03-16T16:12:53;0.50;;;0.50;;
55224;SDS011;41091;49.400;8.684;2023-03-16T16:18:03;1.60;;;1.48;;
55224;SDS011;41091;49.400;8.684;2023-03-16T16:20:45;1.35;;;0.88;;
55224;SDS011;41091;49.400;8.684;2023-03-16T16:23:13;1.15;;;0.50;;
55224;SDS011;41091;49.400;8.684;2023-03-16T16:25:38;0.70;;;0.70;;
55224;SDS011;41091;49.400;8.684;2023-03-16T16:28:18;0.75;;;0.65;;
55224;SDS011;41091;49.400;8.684;2023-03-16T16:30:45;9.35;;;1.00;;
55224;SDS011;41091;49.400;8.684;2023-03-16T16:35:57;0.93;;;0.90;;
55224;SDS011;41091;49.400;8.684;2023-03-16T16:40:52;2.22;;;1.00;;
55224;SDS011;41091;49.400;8.684;2023-03-16T16:45:43;5.03;;;0.93;;
55224;SDS011;41091;49.400;8.684;2023-03-16T16:48:14;0.63;;;0.63;;
55224;SDS011;41091;49.400;8.684;2023-03-16T16:50:58;1.60;;;0.90;;
55224;SDS011;41091;49.400;8.684;2023-03-16T16:53:26;6.45;;;1.05;;
55224;SDS011;41091;49.400;8.684;2023-03-16T16:55:52;1.05;;;0.50;;
55224;SDS011;41091;49.400;8.684;2023-03-16T16:58:18;0.60;;;0.60;;
55224;SDS011;41091;49.400;8.684;2023-03-16T17:00:43;4.10;;;1.13;;
55224;SDS011;41091;49.400;8.684;2023-03-16T17:03:24;2.05;;;0.73;;
55224;SDS011;41091;49.400;8.684;2023-03-16T17:05:52;1.75;;;1.00;;